createdAt,value
2024-03-14T00:00:56.303Z,43.00
2024-03-14T00:04:21.354Z,40.50
2024-03-14T00:07:25.786Z,38.25
2024-03-14T00:10:30.310Z,31.50
2024-03-14T00:13:35.091Z,30.25
2024-03-14T00:16:39.253Z,28.50
2024-03-14T00:19:43.444Z,42.00
2024-03-14T00:22:47.806Z,28.25
2024-03-14T00:25:52.925Z,27.00
2024-03-14T00:28:56.803Z,22.25
2024-03-14T00:32:00.915Z,30.25
2024-03-14T00:35:05.188Z,34.00
2024-03-14T00:38:10.004Z,25.50
2024-03-14T00:41:15.321Z,32.75
2024-03-14T00:44:19.697Z,24.25
2024-03-14T00:47:23.475Z,32.75
2024-03-14T00:50:28.614Z,30.75
2024-03-14T00:53:32.428Z,33.75
2024-03-14T00:56:37.326Z,38.50
2024-03-14T00:59:41.224Z,29.25
2024-03-14T01:02:45.529Z,23.25
2024-03-14T01:05:49.488Z,25.25
2024-03-14T01:08:55.294Z,25.25
2024-03-14T01:11:59.475Z,26.25
2024-03-14T01:15:03.890Z,21.50
2024-03-14T01:18:08.319Z,30.50
2024-03-14T01:21:13.122Z,28.25
2024-03-14T01:24:17.528Z,24.75
2024-03-14T01:27:22.155Z,28.50
2024-03-14T01:30:26.434Z,23.50
2024-03-14T01:33:32.066Z,27.25
2024-03-14T01:36:38.915Z,28.50
2024-03-14T01:39:43.554Z,29.00
2024-03-14T01:42:47.761Z,24.50
2024-03-14T01:45:52.157Z,28.75
2024-03-14T01:48:56.380Z,25.00
2024-03-14T01:52:01.190Z,21.00
2024-03-14T01:55:05.499Z,31.25
2024-03-14T01:58:10.860Z,27.25
2024-03-14T02:01:16.834Z,25.75
2024-03-14T02:04:21.821Z,25.00
2024-03-14T02:07:26.675Z,25.75
2024-03-14T02:10:31.619Z,18.75
2024-03-14T02:13:35.577Z,26.50
2024-03-14T02:16:40.190Z,27.50
2024-03-14T02:19:44.343Z,28.00
2024-03-14T02:22:49.112Z,28.00
2024-03-14T02:25:53.289Z,26.00
2024-03-14T02:28:57.637Z,23.25
2024-03-14T02:32:01.652Z,24.75
2024-03-14T02:35:06.416Z,22.75
2024-03-14T02:38:10.482Z,26.50
2024-03-14T02:41:14.978Z,25.25
2024-03-14T02:44:19.289Z,27.50
2024-03-14T02:47:24.297Z,28.75
2024-03-14T02:50:47.126Z,18.75
2024-03-14T02:53:50.998Z,30.00
2024-03-14T02:56:55.521Z,29.50
2024-03-14T02:59:59.795Z,30.00
2024-03-14T03:03:04.524Z,21.75
2024-03-14T03:06:13.295Z,25.50
2024-03-14T03:09:18.190Z,28.50
2024-03-14T03:12:22.981Z,26.00
2024-03-14T03:15:27.568Z,24.25
2024-03-14T03:18:31.796Z,20.75
2024-03-14T03:21:38.751Z,26.75
2024-03-14T03:24:42.915Z,25.25
2024-03-14T03:27:46.116Z,31.25
2024-03-14T03:30:50.149Z,24.75
2024-03-14T03:33:55.083Z,26.25
2024-03-14T03:36:59.393Z,26.00
2024-03-14T03:40:07.787Z,25.00
2024-03-14T03:43:12.610Z,19.50
2024-03-14T03:46:17.441Z,23.25
2024-03-14T03:49:22.986Z,25.00
2024-03-14T03:52:27.558Z,27.25
2024-03-14T03:55:33.339Z,29.25
2024-03-14T03:58:38.263Z,31.50
2024-03-14T04:01:42.405Z,34.75
2024-03-14T04:04:47.587Z,29.25
2024-03-14T04:07:51.899Z,25.25
2024-03-14T04:10:56.563Z,29.50
2024-03-14T04:14:00.864Z,25.00
2024-03-14T04:17:06.214Z,29.75
2024-03-14T04:20:13.651Z,26.50
2024-03-14T04:23:18.520Z,33.75
2024-03-14T04:26:22.719Z,30.50
2024-03-14T04:29:28.456Z,45.00
2024-03-14T04:32:33.281Z,42.50
2024-03-14T04:35:38.196Z,35.25
2024-03-14T04:38:42.287Z,27.75
2024-03-14T04:41:46.446Z,35.25
2024-03-14T04:44:50.694Z,31.50
2024-03-14T04:48:03.559Z,34.25
2024-03-14T04:51:10.061Z,36.00
2024-03-14T04:54:16.157Z,29.00
2024-03-14T04:57:21.038Z,30.75
2024-03-14T05:00:27.537Z,32.75
2024-03-14T05:03:32.116Z,34.50
2024-03-14T05:06:40.783Z,27.25
2024-03-14T05:09:45.063Z,28.50
2024-03-14T05:12:50.092Z,29.50
2024-03-14T05:15:55.450Z,30.50
2024-03-14T05:18:59.905Z,31.75
2024-03-14T05:22:03.941Z,28.25
2024-03-14T05:25:10.466Z,30.00
2024-03-14T05:28:14.889Z,38.75
2024-03-14T05:31:20.617Z,30.25
2024-03-14T05:34:24.571Z,34.50
2024-03-14T05:37:29.449Z,32.00
2024-03-14T05:40:34.080Z,31.25
2024-03-14T05:43:38.807Z,39.00
2024-03-14T05:46:42.857Z,31.75
2024-03-14T05:49:47.494Z,34.25
2024-03-14T05:52:53.418Z,29.00
2024-03-14T05:55:57.812Z,26.25
2024-03-14T05:59:01.878Z,34.25
2024-03-14T06:02:08.489Z,35.75
2024-03-14T06:05:12.772Z,58.00
2024-03-14T06:08:17.540Z,47.75
2024-03-14T06:11:21.774Z,55.75
2024-03-14T06:14:26.403Z,37.00
2024-03-14T06:17:30.478Z,7.50
2024-03-14T06:20:35.589Z,40.25
2024-03-14T06:23:40.050Z,66.25
2024-03-14T06:26:44.479Z,62.75
2024-03-14T06:29:48.818Z,79.50
2024-03-14T06:32:53.574Z,74.75
2024-03-14T06:35:58.167Z,58.50
2024-03-14T06:39:07.542Z,41.75
2024-03-14T06:42:11.698Z,50.00
2024-03-14T06:45:16.619Z,34.50
2024-03-14T06:48:20.937Z,48.25
2024-03-14T06:51:25.871Z,65.75
2024-03-14T06:54:30.646Z,56.00
2024-03-14T06:57:36.479Z,69.00
2024-03-14T07:00:41.888Z,44.25
2024-03-14T07:03:47.208Z,55.75
2024-03-14T07:06:52.268Z,63.50
2024-03-14T07:09:57.066Z,69.50
2024-03-14T07:13:01.818Z,75.50
2024-03-14T07:16:11.132Z,68.50
2024-03-14T07:19:15.318Z,63.75
2024-03-14T07:22:20.035Z,45.75
2024-03-14T07:25:27.075Z,28.75
2024-03-14T07:28:33.267Z,39.50
2024-03-14T07:31:37.487Z,33.50
2024-03-14T07:34:41.937Z,39.75
2024-03-14T07:38:35.968Z,42.75
2024-03-14T07:41:40.781Z,31.50
2024-03-14T07:44:46.772Z,35.75
2024-03-14T07:47:54.049Z,25.25
2024-03-14T07:51:00.483Z,30.50
2024-03-14T07:54:05.090Z,37.00
2024-03-14T07:57:09.851Z,51.00
2024-03-14T08:00:17.528Z,60.75
2024-03-14T08:03:22.604Z,60.00
2024-03-14T08:06:29.257Z,84.25
2024-03-14T08:09:34.233Z,64.50
2024-03-14T08:12:38.738Z,35.00
2024-03-14T08:15:53.782Z,38.50
2024-03-14T08:18:58.773Z,40.50
2024-03-14T08:22:05.446Z,33.25
2024-03-14T08:25:17.340Z,30.25
2024-03-14T08:28:24.196Z,49.75
2024-03-14T08:31:29.651Z,45.00
2024-03-14T08:34:34.712Z,36.25
2024-03-14T08:37:39.453Z,43.50
2024-03-14T08:40:43.840Z,48.25
2024-03-14T08:43:49.199Z,46.00
2024-03-14T08:46:53.573Z,38.00
2024-03-14T08:49:58.258Z,51.25
2024-03-14T08:53:02.610Z,43.00
2024-03-14T08:56:09.052Z,54.75
2024-03-14T08:59:14.702Z,50.00
2024-03-14T09:02:23.582Z,54.00
2024-03-14T09:05:28.060Z,53.75
2024-03-14T09:08:33.705Z,45.50
2024-03-14T09:11:37.945Z,45.50
2024-03-14T09:14:43.903Z,48.25
2024-03-14T09:17:48.214Z,39.25
2024-03-14T09:21:01.654Z,74.25
2024-03-14T09:24:08.222Z,38.50
2024-03-14T09:27:13.059Z,62.75
2024-03-14T09:30:18.947Z,78.75
2024-03-14T09:33:24.038Z,58.50
2024-03-14T09:36:29.148Z,51.75
2024-03-14T09:39:37.809Z,62.25
2024-03-14T09:42:42.931Z,47.00
2024-03-14T09:45:50.163Z,92.00
2024-03-14T09:48:54.447Z,63.75
2024-03-14T09:51:59.693Z,59.00
2024-03-14T09:55:03.833Z,35.75
2024-03-14T09:58:10.300Z,45.25
2024-03-14T10:01:14.494Z,45.75
2024-03-14T10:04:18.831Z,46.75
2024-03-14T10:07:23.034Z,59.75
2024-03-14T10:10:27.903Z,73.25
2024-03-14T10:13:32.052Z,49.00
2024-03-14T10:16:38.508Z,47.75
2024-03-14T10:19:42.448Z,48.25
2024-03-14T10:22:50.498Z,48.50
2024-03-14T10:25:55.657Z,41.75
2024-03-14T10:29:01.739Z,43.25
2024-03-14T10:32:06.050Z,48.75
2024-03-14T10:35:11.394Z,33.25
2024-03-14T10:38:16.627Z,64.50
2024-03-14T10:41:20.943Z,49.00
2024-03-14T10:44:26.188Z,35.25
2024-03-14T10:47:30.874Z,38.25
2024-03-14T10:50:35.281Z,54.00
2024-03-14T10:53:41.514Z,50.00
2024-03-14T10:56:47.782Z,42.25
2024-03-14T10:59:54.180Z,46.50
2024-03-14T11:02:58.284Z,29.25
2024-03-14T11:06:02.736Z,66.25
2024-03-14T11:09:08.240Z,33.75
2024-03-14T11:12:13.553Z,28.75
2024-03-14T11:15:19.954Z,37.25
2024-03-14T11:18:24.874Z,44.25
2024-03-14T11:21:35.591Z,33.75
2024-03-14T11:24:40.603Z,32.00
2024-03-14T11:27:44.869Z,27.00
2024-03-14T11:30:56.710Z,30.50
2024-03-14T11:34:00.606Z,55.50
2024-03-14T11:37:04.922Z,35.25
2024-03-14T11:40:16.780Z,40.75
2024-03-14T11:43:21.774Z,31.00
2024-03-14T11:46:28.085Z,31.00
2024-03-14T11:49:35.306Z,48.00
2024-03-14T11:52:41.035Z,48.00
2024-03-14T11:55:53.877Z,37.50
2024-03-14T11:59:05.774Z,43.50
2024-03-14T12:02:17.317Z,32.00
2024-03-14T12:05:28.592Z,36.50
2024-03-14T12:08:33.092Z,33.75
2024-03-14T12:11:40.507Z,37.50
2024-03-14T12:14:45.156Z,40.50
2024-03-14T12:17:57.358Z,36.25
2024-03-14T12:21:02.906Z,29.25
2024-03-14T12:24:07.349Z,25.75
2024-03-14T12:27:12.673Z,23.00
2024-03-14T12:30:17.716Z,17.00
2024-03-14T12:33:22.290Z,17.00
2024-03-14T12:36:26.457Z,18.25
2024-03-14T12:39:31.373Z,18.00
2024-03-14T12:42:39.990Z,13.25
2024-03-14T12:45:47.073Z,20.50
2024-03-14T12:48:51.298Z,23.50
2024-03-14T12:51:59.287Z,17.50
2024-03-14T12:55:15.115Z,20.25
2024-03-14T12:58:24.022Z,27.00
2024-03-14T13:01:31.769Z,24.50
2024-03-14T13:04:41.933Z,20.25
2024-03-14T13:07:46.671Z,35.50
2024-03-14T13:10:51.407Z,27.00
2024-03-14T13:14:13.432Z,29.75
2024-03-14T13:17:17.875Z,18.75
2024-03-14T13:20:27.372Z,10.50
2024-03-14T13:23:32.421Z,29.75
2024-03-14T13:26:36.869Z,26.75
2024-03-14T13:29:41.469Z,27.25
2024-03-14T13:32:46.443Z,16.75
2024-03-14T13:35:51.063Z,32.25
2024-03-14T13:38:57.688Z,25.50
2024-03-14T13:42:03.560Z,32.75
2024-03-14T13:45:08.250Z,20.00
2024-03-14T13:48:13.422Z,26.00
2024-03-14T13:51:18.624Z,30.75
2024-03-14T13:54:25.959Z,27.25
2024-03-14T13:57:32.068Z,35.50
2024-03-14T14:00:48.562Z,35.75
2024-03-14T14:03:55.120Z,61.00
2024-03-14T14:06:59.811Z,36.25
2024-03-14T14:10:04.160Z,67.00
2024-03-14T14:13:08.696Z,53.50
2024-03-14T14:16:14.649Z,74.50
2024-03-14T14:19:19.111Z,50.50
2024-03-14T14:22:24.343Z,57.25
2024-03-14T14:25:28.545Z,37.75
2024-03-14T14:28:33.128Z,51.50
2024-03-14T14:31:39.600Z,76.25
2024-03-14T14:34:46.281Z,42.50
2024-03-14T14:37:50.979Z,48.50
2024-03-14T14:40:55.227Z,65.50
2024-03-14T14:43:59.984Z,38.00
2024-03-14T14:47:05.878Z,54.50
2024-03-14T14:50:10.782Z,45.00
2024-03-14T14:53:17.797Z,40.75
2024-03-14T14:56:24.517Z,30.25
2024-03-14T14:59:30.867Z,73.00
2024-03-14T15:02:34.994Z,53.50
2024-03-14T15:05:39.328Z,26.75
2024-03-14T15:08:47.164Z,85.75
2024-03-14T15:11:53.058Z,49.00
2024-03-14T15:14:57.536Z,70.00
2024-03-14T15:18:01.724Z,68.50
2024-03-14T15:21:06.451Z,65.50
2024-03-14T15:24:12.605Z,62.00
2024-03-14T15:27:18.347Z,48.00
2024-03-14T15:30:24.359Z,11.50
2024-03-14T15:33:29.151Z,34.25
2024-03-14T15:36:33.193Z,45.50
2024-03-14T15:39:38.326Z,65.25
2024-03-14T15:42:42.766Z,44.75
2024-03-14T15:45:47.264Z,29.00
2024-03-14T15:48:52.259Z,62.00
2024-03-14T15:51:56.849Z,49.50
2024-03-14T15:55:01.094Z,60.75
2024-03-14T15:58:05.697Z,52.00
2024-03-14T16:01:09.629Z,51.50
2024-03-14T16:04:14.186Z,55.25
2024-03-14T16:07:18.040Z,52.75
2024-03-14T16:10:22.369Z,37.25
2024-03-14T16:13:26.704Z,51.75
2024-03-14T16:16:31.057Z,48.00
2024-03-14T16:19:34.937Z,47.50
2024-03-14T16:22:39.480Z,48.25
2024-03-14T16:25:43.306Z,52.25
2024-03-14T16:28:49.418Z,49.00
2024-03-14T16:31:53.513Z,52.25
2024-03-14T16:34:57.808Z,59.00
2024-03-14T16:38:02.826Z,54.25
2024-03-14T16:41:08.263Z,55.25
2024-03-14T16:44:12.310Z,58.25
2024-03-14T16:47:19.108Z,57.25
2024-03-14T16:50:22.869Z,49.25
2024-03-14T16:53:27.557Z,53.25
2024-03-14T16:56:31.804Z,75.00
2024-03-14T16:59:37.020Z,151.33
2024-03-14T17:02:40.886Z,89.50
2024-03-14T17:05:45.067Z,115.25
2024-03-14T17:08:48.817Z,112.25
2024-03-14T17:11:52.931Z,90.25
2024-03-14T17:14:57.043Z,68.25
2024-03-14T17:18:01.813Z,52.50
2024-03-14T17:21:06.257Z,70.25
2024-03-14T17:24:12.209Z,57.00
2024-03-14T17:27:16.414Z,64.25
2024-03-14T17:30:22.446Z,51.75
2024-03-14T17:33:28.422Z,59.50
2024-03-14T17:36:34.370Z,76.50
2024-03-14T17:39:39.006Z,64.75
2024-03-14T17:42:48.664Z,49.75
2024-03-14T17:45:52.675Z,61.75
2024-03-14T17:48:57.693Z,49.25
2024-03-14T17:52:01.823Z,40.50
2024-03-14T17:55:07.566Z,59.75
2024-03-14T17:58:12.854Z,94.00
2024-03-14T18:01:19.602Z,77.75
2024-03-14T18:04:24.087Z,62.75
2024-03-14T18:07:28.210Z,85.75
2024-03-14T18:10:33.009Z,68.50
2024-03-14T18:13:39.061Z,84.00
2024-03-14T18:16:43.161Z,39.75
2024-03-14T18:19:48.356Z,46.50
2024-03-14T18:22:55.170Z,49.00
2024-03-14T18:26:01.289Z,22.25
2024-03-14T18:29:05.573Z,47.00
2024-03-14T18:32:13.992Z,56.75
2024-03-14T18:35:19.086Z,56.00
2024-03-14T18:38:23.957Z,45.75
2024-03-14T18:41:28.145Z,69.50
2024-03-14T18:44:34.099Z,66.25
2024-03-14T18:47:40.286Z,53.25
2024-03-14T18:50:44.734Z,56.75
2024-03-14T18:53:52.140Z,66.50
2024-03-14T18:56:58.636Z,86.00
2024-03-14T19:00:02.801Z,53.75
2024-03-14T19:03:07.596Z,52.75
2024-03-14T19:06:11.901Z,62.50
2024-03-14T19:09:16.676Z,62.50
2024-03-14T19:12:22.972Z,85.50
2024-03-14T19:15:27.892Z,50.00
2024-03-14T19:18:33.000Z,57.50
2024-03-14T19:21:39.554Z,79.50
2024-03-14T19:24:45.433Z,61.00
2024-03-14T19:27:51.150Z,49.00
2024-03-14T19:30:55.620Z,50.75
2024-03-14T19:34:00.454Z,55.25
2024-03-14T19:37:05.418Z,34.25
2024-03-14T19:40:10.493Z,51.25
2024-03-14T19:43:15.714Z,42.50
2024-03-14T19:46:20.466Z,43.25
2024-03-14T19:49:24.662Z,37.00
2024-03-14T19:52:29.582Z,46.00
2024-03-14T19:55:34.142Z,66.50
2024-03-14T19:58:41.526Z,77.75
2024-03-14T20:01:45.960Z,35.25
2024-03-14T20:04:52.899Z,38.25
2024-03-14T20:07:56.920Z,39.50
2024-03-14T20:11:04.476Z,53.00
2024-03-14T20:14:08.802Z,54.50
2024-03-14T20:17:15.778Z,61.50
2024-03-14T20:20:20.358Z,62.50
2024-03-14T20:23:26.168Z,60.75
2024-03-14T20:26:30.225Z,57.50
2024-03-14T20:29:35.856Z,70.25
2024-03-14T20:32:40.209Z,67.75
2024-03-14T20:35:48.262Z,65.50
2024-03-14T20:39:05.854Z,54.75
2024-03-14T20:42:15.816Z,61.75
2024-03-14T20:45:20.110Z,60.75
2024-03-14T20:48:25.277Z,66.50
2024-03-14T20:51:30.017Z,77.25
2024-03-14T20:54:35.466Z,69.25
2024-03-14T20:57:40.164Z,57.25
2024-03-14T21:00:46.043Z,45.75
2024-03-14T21:03:50.304Z,77.25
2024-03-14T21:06:54.696Z,58.25
2024-03-14T21:10:00.448Z,65.50
2024-03-14T21:13:06.060Z,68.75
2024-03-14T21:16:10.173Z,58.75
2024-03-14T21:19:15.016Z,55.75
2024-03-14T21:22:19.985Z,84.50
2024-03-14T21:25:25.829Z,79.25
2024-03-14T21:28:30.458Z,84.50
2024-03-14T21:31:35.258Z,68.50
2024-03-14T21:34:39.710Z,71.75
2024-03-14T21:37:44.322Z,64.75
2024-03-14T21:40:48.699Z,59.50
2024-03-14T21:43:53.084Z,64.50
2024-03-14T21:46:57.301Z,79.75
2024-03-14T21:50:01.803Z,60.50
2024-03-14T21:53:06.484Z,63.00
2024-03-14T21:56:11.621Z,77.75
2024-03-14T21:59:15.839Z,69.00
2024-03-14T22:02:20.688Z,62.25
2024-03-14T22:05:24.794Z,84.00
2024-03-14T22:08:30.711Z,82.75
2024-03-14T22:11:35.088Z,70.75
2024-03-14T22:14:39.820Z,75.00
2024-03-14T22:17:44.877Z,68.50
2024-03-14T22:20:49.446Z,52.00
2024-03-14T22:23:54.288Z,60.75
2024-03-14T22:26:59.374Z,75.50
2024-03-14T22:30:04.580Z,60.50
2024-03-14T22:33:09.218Z,62.00
2024-03-14T22:36:14.165Z,71.50
2024-03-14T22:39:20.220Z,65.25
2024-03-14T22:42:24.390Z,72.25
2024-03-14T22:45:32.126Z,66.50
2024-03-14T22:48:39.083Z,79.75
2024-03-14T22:51:43.875Z,72.50
2024-03-14T22:54:48.286Z,67.75
2024-03-14T22:57:53.120Z,66.00
2024-03-14T23:00:58.977Z,63.75
2024-03-14T23:04:09.235Z,61.50
2024-03-14T23:07:14.174Z,67.25
2024-03-14T23:10:20.096Z,71.00
2024-03-14T23:13:24.367Z,62.75
2024-03-14T23:16:32.468Z,67.50
2024-03-14T23:19:38.433Z,64.50
2024-03-14T23:22:43.227Z,65.25
2024-03-14T23:25:47.354Z,70.75
2024-03-14T23:28:52.523Z,56.50
2024-03-14T23:31:56.608Z,68.50
2024-03-14T23:35:01.334Z,53.00
2024-03-14T23:38:06.079Z,58.75
2024-03-14T23:41:11.467Z,60.50
2024-03-14T23:44:15.517Z,75.00
2024-03-14T23:47:20.830Z,68.25
2024-03-14T23:50:26.480Z,55.75
2024-03-14T23:53:31.810Z,52.25
2024-03-14T23:56:36.603Z,52.50
2024-03-14T23:59:41.104Z,64.00
